Altus, Arkansas
Current Conditions -  °F | °C
As of 2:53 AM on Sunday 21 Dec 2014 (Local Time) from KFSM Reporting Station
Overcast Overcast  
Wind Chill:   Ceiling: 2900
Heat Index:   Visibility: 7mi
Dew Point:   Wind: 3mph
Humidity: 85%   Direction: 60°ENE
Pressure: 30.18"   Gusts: NA
Location:  35.45°N, 93.76°W
Report Text: KFSM 210853Z AUTO 06003KT 7SM OVC029 07/04 A3018 RMK AO2 SLP221 T00670044 56008
Loading
Personal Weather Stations






























Interactive Weather Map New forecast layout! Learn more

10-Day Weather Forecast

Advertisements
Track Severe Weather on mobile